createdAt,value
2019-02-28T00:02:22.379Z,22.5
2019-02-28T00:07:44.944Z,22
2019-02-28T00:13:07.665Z,24.5
2019-02-28T00:18:30.395Z,23.4
2019-02-28T00:23:56.306Z,23.6
2019-02-28T00:29:16.630Z,25
2019-02-28T00:34:39.914Z,26.200001
2019-02-28T00:40:02.232Z,27.799999
2019-02-28T00:45:24.948Z,27.1
2019-02-28T00:50:47.818Z,27.299999
2019-02-28T00:56:10.464Z,29.9
2019-02-28T01:01:33.232Z,29.1
2019-02-28T01:06:55.896Z,29.700001
2019-02-28T01:12:19.138Z,30.4
2019-02-28T01:17:42.186Z,31.799999
2019-02-28T01:23:04.941Z,28.9
2019-02-28T01:28:27.694Z,32.099998
2019-02-28T01:33:50.158Z,34.700001
2019-02-28T01:39:13.003Z,34.099998
2019-02-28T01:44:36.441Z,37
2019-02-28T01:49:58.799Z,35.700001
2019-02-28T01:55:20.971Z,35.299999
2019-02-28T02:00:43.643Z,36.400002
2019-02-28T02:06:06.945Z,36.700001
2019-02-28T02:11:29.621Z,38.700001
2019-02-28T02:17:09.905Z,38.099998
2019-02-28T02:22:32.623Z,43.5
2019-02-28T02:27:55.437Z,44.599998
2019-02-28T02:33:18.185Z,45.299999
2019-02-28T02:38:41.784Z,43.200001
2019-02-28T02:44:04.459Z,47.799999
2019-02-28T02:49:27.214Z,47.400002
2019-02-28T02:54:52.037Z,42.200001
2019-02-28T03:00:15.032Z,45.599998
2019-02-28T03:05:37.371Z,44.700001
2019-02-28T03:11:00.094Z,47.700001
2019-02-28T03:16:22.798Z,47.200001
2019-02-28T03:21:50.956Z,53.599998
2019-02-28T03:27:09.327Z,46.299999
2019-02-28T03:32:38.961Z,49.900002
2019-02-28T03:37:55.880Z,47.200001
2019-02-28T03:43:18.551Z,42.299999
2019-02-28T03:48:41.257Z,44.599998
2019-02-28T03:54:04.004Z,48.299999
2019-02-28T03:59:27.327Z,43.599998
2019-02-28T04:04:50.400Z,45.900002
2019-02-28T04:10:16.589Z,55
2019-02-28T04:15:36.491Z,46.700001
2019-02-28T04:20:59.183Z,49
2019-02-28T04:26:22.946Z,53.799999
2019-02-28T04:31:45.821Z,47.700001
2019-02-28T04:37:09.641Z,47
2019-02-28T04:42:36.595Z,49.900002
2019-02-28T04:47:57.746Z,51
2019-02-28T04:53:20.469Z,46.099998
2019-02-28T04:58:43.310Z,50.299999
2019-02-28T05:04:06.035Z,51
2019-02-28T05:09:28.756Z,51.299999
2019-02-28T05:14:52.070Z,48.099998
2019-02-28T05:20:14.903Z,56.099998
2019-02-28T05:25:37.554Z,48.400002
2019-02-28T05:31:02.677Z,50.299999
2019-02-28T05:36:26.315Z,50
2019-02-28T05:41:50.203Z,50.599998
2019-02-28T05:47:12.903Z,53.299999
2019-02-28T05:52:36.512Z,52.5
2019-02-28T05:57:59.255Z,56.599998
2019-02-28T06:03:22.518Z,55.700001
2019-02-28T06:08:45.237Z,57.299999
2019-02-28T06:14:08.074Z,61.900002
2019-02-28T06:19:31.120Z,73.5
2019-02-28T06:24:54.039Z,64.5
2019-02-28T06:30:16.679Z,80.800003
2019-02-28T06:35:39.327Z,64.599998
2019-02-28T06:41:04.206Z,65.599998
2019-02-28T06:46:26.785Z,73.300003
2019-02-28T06:51:51.302Z,74.699997
2019-02-28T06:57:13.246Z,66.699997
2019-02-28T07:02:35.889Z,68.099998
2019-02-28T07:08:01.931Z,75.900002
2019-02-28T07:13:24.728Z,82.099998
2019-02-28T07:18:52.569Z,68.099998
2019-02-28T07:24:11.161Z,72.699997
2019-02-28T07:29:33.911Z,72.699997
2019-02-28T07:34:58.040Z,74.199997
2019-02-28T07:40:20.250Z,82.400002
2019-02-28T07:45:42.885Z,72.699997
2019-02-28T07:51:05.507Z,84.900002
2019-02-28T07:56:28.467Z,73.699997
2019-02-28T08:01:51.441Z,76.099998
2019-02-28T08:07:14.690Z,69.400002
2019-02-28T08:12:37.940Z,64.900002
2019-02-28T08:18:00.629Z,61.599998
2019-02-28T08:23:23.319Z,58.200001
2019-02-28T08:28:46.003Z,55.599998
2019-02-28T08:34:08.655Z,52.5
2019-02-28T08:39:31.358Z,49.5
2019-02-28T08:44:57.704Z,51.299999
2019-02-28T08:50:20.190Z,50.799999
2019-02-28T08:55:44.151Z,46.5
2019-02-28T09:01:05.500Z,47.299999
2019-02-28T09:06:29.089Z,48.400002
2019-02-28T09:11:52.737Z,46.5
2019-02-28T09:17:18.315Z,47.400002
2019-02-28T09:22:39.170Z,48.900002
2019-02-28T09:28:01.889Z,47.900002
2019-02-28T09:33:25.898Z,50
2019-02-28T09:38:56.789Z,51.400002
2019-02-28T09:44:12.227Z,53.299999
2019-02-28T09:49:34.863Z,53.900002
2019-02-28T09:54:59.193Z,52.900002
2019-02-28T10:00:21.619Z,55.5
2019-02-28T10:05:44.550Z,58.299999
2019-02-28T10:11:07.285Z,55.400002
2019-02-28T10:16:29.886Z,55.299999
2019-02-28T10:21:52.739Z,55.200001
2019-02-28T10:27:15.358Z,54.799999
2019-02-28T10:32:40.314Z,54.799999
2019-02-28T10:38:02.725Z,55.900002
2019-02-28T10:43:25.368Z,55.900002
2019-02-28T10:48:50.900Z,57.099998
2019-02-28T10:54:14.512Z,54.299999
2019-02-28T10:59:35.331Z,57.299999
2019-02-28T11:04:58.040Z,56.799999
2019-02-28T11:10:20.640Z,56.900002
2019-02-28T11:15:47.850Z,55.700001
2019-02-28T11:21:10.404Z,57
2019-02-28T11:26:33.172Z,56.200001
2019-02-28T11:31:55.827Z,57.5
2019-02-28T11:37:22.218Z,56.5
2019-02-28T11:42:44.859Z,57.700001
2019-02-28T11:48:07.734Z,55
2019-02-28T11:53:30.368Z,59.200001
2019-02-28T11:58:53.132Z,56.099998
2019-02-28T12:04:15.803Z,58
2019-02-28T12:09:38.423Z,59.400002
2019-02-28T12:15:02.609Z,55.5
2019-02-28T12:20:26.376Z,56.900002
2019-02-28T12:25:48.680Z,60.200001
2019-02-28T12:31:11.316Z,62.400002
2019-02-28T12:36:33.968Z,63.799999
2019-02-28T12:41:59.481Z,62.400002
2019-02-28T12:47:20.201Z,62.599998
2019-02-28T12:52:42.938Z,61.900002
2019-02-28T12:58:05.553Z,62.599998
2019-02-28T13:03:28.232Z,62.200001
2019-02-28T13:08:50.868Z,61
2019-02-28T13:14:13.552Z,65.699997
2019-02-28T13:19:36.191Z,63.400002
2019-02-28T13:24:58.823Z,61.099998
2019-02-28T13:30:24.873Z,58.700001
2019-02-28T13:35:47.899Z,57.400002
2019-02-28T13:41:10.317Z,52.299999
2019-02-28T13:46:34.324Z,51.799999
2019-02-28T13:51:56.553Z,51.599998
2019-02-28T13:57:19.132Z,51.900002
2019-02-28T14:02:41.705Z,46.400002
2019-02-28T14:08:09.524Z,49
2019-02-28T14:13:29.914Z,48.299999
2019-02-28T14:18:51.536Z,48.200001
2019-02-28T14:24:14.167Z,48.099998
2019-02-28T14:29:36.785Z,48.700001
2019-02-28T14:35:00.826Z,49.900002
2019-02-28T14:40:23.162Z,54.299999
2019-02-28T14:45:45.871Z,55.799999
2019-02-28T14:51:08.602Z,60.200001
2019-02-28T14:56:31.203Z,58.5
2019-02-28T15:01:54.137Z,60.299999
2019-02-28T15:07:17.093Z,61.400002
2019-02-28T15:12:39.915Z,59.799999
2019-02-28T15:18:02.481Z,61.299999
2019-02-28T15:23:25.133Z,61
2019-02-28T15:28:49.251Z,61.700001
2019-02-28T15:34:11.096Z,60.599998
2019-02-28T15:39:34.480Z,60.599998
2019-02-28T15:45:00.287Z,58.799999
2019-02-28T15:50:20.921Z,59.700001
2019-02-28T15:55:43.637Z,61
2019-02-28T16:01:06.363Z,61.900002
2019-02-28T16:06:29.013Z,63.099998
2019-02-28T16:11:51.733Z,63.799999
2019-02-28T16:17:14.352Z,62.599998
2019-02-28T16:22:37.579Z,63.400002
2019-02-28T16:28:00.229Z,59.900002
2019-02-28T16:33:24.687Z,62
2019-02-28T16:38:46.520Z,59.599998
2019-02-28T16:44:09.162Z,60.5
2019-02-28T16:49:31.864Z,60.900002
2019-02-28T16:54:56.261Z,60.799999
2019-02-28T17:00:18.126Z,60.400002
2019-02-28T17:05:40.781Z,60.799999
2019-02-28T17:11:04.641Z,41.700001
2019-02-28T17:16:27.314Z,35
2019-02-28T17:21:52.245Z,31.4
2019-02-28T17:27:14.029Z,32.099998
2019-02-28T17:32:36.704Z,32.700001
2019-02-28T17:38:00.145Z,31.6
2019-02-28T17:43:24.368Z,30.6
2019-02-28T17:48:48.566Z,27.5
2019-02-28T17:54:10.572Z,28.799999
2019-02-28T17:59:35.987Z,26.6
2019-02-28T18:04:57.199Z,26.5
2019-02-28T18:10:20.930Z,25.6
2019-02-28T18:15:45.881Z,26.9
2019-02-28T18:21:06.866Z,26.5
2019-02-28T18:26:39.021Z,25.799999
2019-02-28T18:31:57.039Z,25.200001
2019-02-28T18:37:20.699Z,24.5
2019-02-28T18:42:43.489Z,25.200001
2019-02-28T18:48:06.115Z,24.4
2019-02-28T18:53:28.877Z,23
2019-02-28T18:58:51.495Z,23.299999
2019-02-28T19:04:14.311Z,23.9
2019-02-28T19:09:37.080Z,23.5
2019-02-28T19:14:59.743Z,22.9
2019-02-28T19:20:22.338Z,25.5
2019-02-28T19:25:45.020Z,25.4
2019-02-28T19:31:07.981Z,24.799999
2019-02-28T19:36:30.840Z,26.799999
2019-02-28T19:41:53.681Z,31.299999
2019-02-28T19:47:16.363Z,41.5
2019-02-28T19:52:39.097Z,46.400002
2019-02-28T19:58:01.869Z,41.900002
2019-02-28T20:03:24.557Z,47
2019-02-28T20:08:47.247Z,46.099998
2019-02-28T20:14:10.011Z,45.799999
2019-02-28T20:19:32.731Z,46.700001
2019-02-28T20:24:55.536Z,45
2019-02-28T20:30:18.201Z,44
2019-02-28T20:35:40.982Z,42.5
2019-02-28T20:41:03.745Z,39.400002
2019-02-28T20:46:26.508Z,37.799999
2019-02-28T20:51:54.980Z,36.400002
2019-02-28T20:57:13.405Z,35.400002
2019-02-28T21:02:36.150Z,33.700001
2019-02-28T21:07:58.976Z,32.200001
2019-02-28T21:13:24.199Z,30.1
2019-02-28T21:18:49.143Z,30.200001
2019-02-28T21:24:11.921Z,29.5
2019-02-28T21:29:34.635Z,27.299999
2019-02-28T21:34:57.376Z,27.6
2019-02-28T21:40:20.103Z,27.200001
2019-02-28T21:45:42.974Z,26.4
2019-02-28T21:51:05.696Z,27.1
2019-02-28T21:56:28.410Z,28.6
2019-02-28T22:01:51.179Z,27.799999
2019-02-28T22:07:13.929Z,29.6
2019-02-28T22:12:36.631Z,29.9
2019-02-28T22:17:59.879Z,31.700001
2019-02-28T22:23:22.546Z,31
2019-02-28T22:28:45.180Z,33.5
2019-02-28T22:34:07.793Z,35.299999
2019-02-28T22:39:30.542Z,34
2019-02-28T22:44:53.211Z,32.799999
2019-02-28T22:50:15.921Z,32.900002
2019-02-28T22:55:38.614Z,30.6
2019-02-28T23:01:02.268Z,31
2019-02-28T23:06:25.777Z,29
2019-02-28T23:11:49.027Z,23.799999
2019-02-28T23:17:11.740Z,20.6
2019-02-28T23:22:34.403Z,19.1
2019-02-28T23:27:57.067Z,17.200001
2019-02-28T23:33:19.719Z,15.7
2019-02-28T23:38:42.329Z,16
2019-02-28T23:44:04.999Z,15.1
2019-02-28T23:49:27.677Z,15.7
2019-02-28T23:54:50.329Z,16.700001
